sensor_id;sensor_type;location;lat;lon;timestamp;P1;durP1;ratioP1;P2;durP2;ratioP2
76310;SDS011;65120;59.304;18.294;2022-11-20T00:01:11;1.17;;;0.60;;
76310;SDS011;65120;59.304;18.294;2022-11-20T00:03:39;1.67;;;0.50;;
76310;SDS011;65120;59.304;18.294;2022-11-20T00:06:08;0.40;;;0.40;;
76310;SDS011;65120;59.304;18.294;2022-11-20T00:08:36;1.00;;;0.40;;
76310;SDS011;65120;59.304;18.294;2022-11-20T00:11:04;1.52;;;0.70;;
76310;SDS011;65120;59.304;18.294;2022-11-20T00:13:31;1.30;;;0.50;;
76310;SDS011;65120;59.304;18.294;2022-11-20T00:15:58;0.90;;;0.45;;
76310;SDS011;65120;59.304;18.294;2022-11-20T00:18:26;0.65;;;0.38;;
76310;SDS011;65120;59.304;18.294;2022-11-20T00:20:59;1.10;;;0.40;;
76310;SDS011;65120;59.304;18.294;2022-11-20T00:23:28;0.93;;;0.60;;
76310;SDS011;65120;59.304;18.294;2022-11-20T00:25:55;0.40;;;0.30;;
76310;SDS011;65120;59.304;18.294;2022-11-20T00:28:23;1.20;;;0.40;;
76310;SDS011;65120;59.304;18.294;2022-11-20T00:30:49;1.05;;;0.25;;
76310;SDS011;65120;59.304;18.294;2022-11-20T00:33:16;0.20;;;0.20;;
76310;SDS011;65120;59.304;18.294;2022-11-20T00:35:43;0.77;;;0.20;;
76310;SDS011;65120;59.304;18.294;2022-11-20T00:38:10;0.57;;;0.20;;
76310;SDS011;65120;59.304;18.294;2022-11-20T00:40:38;0.17;;;0.17;;
76310;SDS011;65120;59.304;18.294;2022-11-20T00:43:05;0.50;;;0.10;;
76310;SDS011;65120;59.304;18.294;2022-11-20T00:45:32;0.45;;;0.10;;
76310;SDS011;65120;59.304;18.294;2022-11-20T00:47:59;0.73;;;0.73;;
76310;SDS011;65120;59.304;18.294;2022-11-20T00:50:26;1.75;;;0.20;;
76310;SDS011;65120;59.304;18.294;2022-11-20T00:52:53;0.30;;;0.20;;
76310;SDS011;65120;59.304;18.294;2022-11-20T00:55:19;0.20;;;0.10;;
76310;SDS011;65120;59.304;18.294;2022-11-20T00:57:48;1.05;;;0.73;;
76310;SDS011;65120;59.304;18.294;2022-11-20T01:00:15;0.32;;;0.10;;
76310;SDS011;65120;59.304;18.294;2022-11-20T01:02:42;0.20;;;0.20;;
76310;SDS011;65120;59.304;18.294;2022-11-20T01:05:09;0.22;;;0.15;;
76310;SDS011;65120;59.304;18.294;2022-11-20T01:07:36;0.77;;;0.20;;
76310;SDS011;65120;59.304;18.294;2022-11-20T01:10:03;0.68;;;0.20;;
76310;SDS011;65120;59.304;18.294;2022-11-20T01:12:30;0.68;;;0.30;;
76310;SDS011;65120;59.304;18.294;2022-11-20T01:14:58;0.30;;;0.30;;
76310;SDS011;65120;59.304;18.294;2022-11-20T01:17:25;0.30;;;0.17;;
76310;SDS011;65120;59.304;18.294;2022-11-20T01:19:52;0.30;;;0.20;;
76310;SDS011;65120;59.304;18.294;2022-11-20T01:22:19;0.25;;;0.13;;
76310;SDS011;65120;59.304;18.294;2022-11-20T01:24:46;0.98;;;0.17;;
76310;SDS011;65120;59.304;18.294;2022-11-20T01:27:13;0.20;;;0.20;;
76310;SDS011;65120;59.304;18.294;2022-11-20T01:29:40;0.20;;;0.20;;
76310;SDS011;65120;59.304;18.294;2022-11-20T01:32:08;0.30;;;0.20;;
76310;SDS011;65120;59.304;18.294;2022-11-20T01:34:35;0.82;;;0.20;;
76310;SDS011;65120;59.304;18.294;2022-11-20T01:37:02;0.30;;;0.20;;
76310;SDS011;65120;59.304;18.294;2022-11-20T01:39:29;3.20;;;0.30;;
76310;SDS011;65120;59.304;18.294;2022-11-20T01:41:56;0.47;;;0.20;;
76310;SDS011;65120;59.304;18.294;2022-11-20T01:44:47;0.10;;;0.10;;
76310;SDS011;65120;59.304;18.294;2022-11-20T01:47:21;0.30;;;0.10;;
76310;SDS011;65120;59.304;18.294;2022-11-20T01:50:03;0.40;;;0.20;;
76310;SDS011;65120;59.304;18.294;2022-11-20T01:52:36;0.30;;;0.30;;
76310;SDS011;65120;59.304;18.294;2022-11-20T01:55:08;0.63;;;0.20;;
76310;SDS011;65120;59.304;18.294;2022-11-20T01:57:38;0.73;;;0.30;;
76310;SDS011;65120;59.304;18.294;2022-11-20T02:00:07;0.35;;;0.20;;
76310;SDS011;65120;59.304;18.294;2022-11-20T02:02:37;0.30;;;0.22;;
76310;SDS011;65120;59.304;18.294;2022-11-20T02:05:10;2.28;;;0.28;;
76310;SDS011;65120;59.304;18.294;2022-11-20T02:07:43;0.32;;;0.20;;
76310;SDS011;65120;59.304;18.294;2022-11-20T02:10:12;0.65;;;0.20;;
76310;SDS011;65120;59.304;18.294;2022-11-20T02:12:40;0.30;;;0.20;;
76310;SDS011;65120;59.304;18.294;2022-11-20T02:15:25;0.30;;;0.20;;
76310;SDS011;65120;59.304;18.294;2022-11-20T02:17:53;0.20;;;0.20;;
76310;SDS011;65120;59.304;18.294;2022-11-20T02:20:20;0.20;;;0.20;;
76310;SDS011;65120;59.304;18.294;2022-11-20T02:22:48;0.65;;;0.10;;
76310;SDS011;65120;59.304;18.294;2022-11-20T02:25:22;0.20;;;0.10;;
76310;SDS011;65120;59.304;18.294;2022-11-20T02:27:51;0.20;;;0.10;;
76310;SDS011;65120;59.304;18.294;2022-11-20T02:30:18;0.00;;;0.00;;
76310;SDS011;65120;59.304;18.294;2022-11-20T02:32:45;1.65;;;0.10;;
76310;SDS011;65120;59.304;18.294;2022-11-20T02:38:07;0.00;;;0.00;;
76310;SDS011;65120;59.304;18.294;2022-11-20T02:40:36;0.10;;;0.00;;
76310;SDS011;65120;59.304;18.294;2022-11-20T02:43:03;0.15;;;0.00;;
76310;SDS011;65120;59.304;18.294;2022-11-20T02:45:30;0.10;;;0.10;;
76310;SDS011;65120;59.304;18.294;2022-11-20T02:47:57;0.15;;;0.10;;
76310;SDS011;65120;59.304;18.294;2022-11-20T02:50:23;0.45;;;0.10;;
76310;SDS011;65120;59.304;18.294;2022-11-20T02:52:51;0.15;;;0.10;;
76310;SDS011;65120;59.304;18.294;2022-11-20T02:55:18;0.10;;;0.10;;
76310;SDS011;65120;59.304;18.294;2022-11-20T02:57:46;0.10;;;0.10;;
76310;SDS011;65120;59.304;18.294;2022-11-20T03:00:13;0.20;;;0.10;;
76310;SDS011;65120;59.304;18.294;2022-11-20T03:02:41;0.00;;;0.00;;
76310;SDS011;65120;59.304;18.294;2022-11-20T03:05:08;0.00;;;0.00;;
76310;SDS011;65120;59.304;18.294;2022-11-20T03:07:34;0.08;;;0.00;;
76310;SDS011;65120;59.304;18.294;2022-11-20T03:10:01;0.10;;;0.00;;
76310;SDS011;65120;59.304;18.294;2022-11-20T03:12:29;0.20;;;0.10;;
76310;SDS011;65120;59.304;18.294;2022-11-20T03:14:57;0.20;;;0.10;;
76310;SDS011;65120;59.304;18.294;2022-11-20T03:17:24;0.00;;;0.00;;
76310;SDS011;65120;59.304;18.294;2022-11-20T03:19:51;0.00;;;0.00;;
76310;SDS011;65120;59.304;18.294;2022-11-20T03:22:18;0.30;;;0.00;;
76310;SDS011;65120;59.304;18.294;2022-11-20T03:24:44;0.08;;;0.00;;
76310;SDS011;65120;59.304;18.294;2022-11-20T03:27:11;0.20;;;0.20;;
76310;SDS011;65120;59.304;18.294;2022-11-20T03:29:38;0.32;;;0.10;;
76310;SDS011;65120;59.304;18.294;2022-11-20T03:32:07;0.15;;;0.10;;
76310;SDS011;65120;59.304;18.294;2022-11-20T03:34:34;0.25;;;0.10;;
76310;SDS011;65120;59.304;18.294;2022-11-20T03:37:01;0.17;;;0.10;;
76310;SDS011;65120;59.304;18.294;2022-11-20T03:39:28;0.30;;;0.10;;
76310;SDS011;65120;59.304;18.294;2022-11-20T03:41:55;0.15;;;0.10;;
76310;SDS011;65120;59.304;18.294;2022-11-20T03:44:22;0.30;;;0.17;;
76310;SDS011;65120;59.304;18.294;2022-11-20T03:46:49;0.13;;;0.10;;
76310;SDS011;65120;59.304;18.294;2022-11-20T03:49:17;0.20;;;0.13;;
76310;SDS011;65120;59.304;18.294;2022-11-20T03:51:44;2.50;;;0.20;;
76310;SDS011;65120;59.304;18.294;2022-11-20T03:54:11;0.10;;;0.10;;
76310;SDS011;65120;59.304;18.294;2022-11-20T03:56:38;0.10;;;0.10;;
76310;SDS011;65120;59.304;18.294;2022-11-20T03:59:05;1.02;;;0.10;;
76310;SDS011;65120;59.304;18.294;2022-11-20T04:01:33;0.10;;;0.10;;
76310;SDS011;65120;59.304;18.294;2022-11-20T04:04:02;0.20;;;0.15;;
76310;SDS011;65120;59.304;18.294;2022-11-20T04:06:33;0.40;;;0.20;;
76310;SDS011;65120;59.304;18.294;2022-11-20T04:09:01;0.28;;;0.10;;
76310;SDS011;65120;59.304;18.294;2022-11-20T04:11:29;0.30;;;0.10;;
76310;SDS011;65120;59.304;18.294;2022-11-20T04:13:58;2.75;;;0.20;;
76310;SDS011;65120;59.304;18.294;2022-11-20T04:16:26;0.47;;;0.30;;
76310;SDS011;65120;59.304;18.294;2022-11-20T04:18:55;0.20;;;0.10;;
76310;SDS011;65120;59.304;18.294;2022-11-20T04:21:24;0.30;;;0.20;;
76310;SDS011;65120;59.304;18.294;2022-11-20T04:23:53;2.22;;;0.52;;
76310;SDS011;65120;59.304;18.294;2022-11-20T04:26:21;1.25;;;0.10;;
76310;SDS011;65120;59.304;18.294;2022-11-20T04:28:50;0.20;;;0.13;;
76310;SDS011;65120;59.304;18.294;2022-11-20T04:31:18;0.15;;;0.10;;
76310;SDS011;65120;59.304;18.294;2022-11-20T04:33:46;0.30;;;0.28;;
76310;SDS011;65120;59.304;18.294;2022-11-20T04:36:14;0.90;;;0.40;;
76310;SDS011;65120;59.304;18.294;2022-11-20T04:38:42;0.40;;;0.17;;
76310;SDS011;65120;59.304;18.294;2022-11-20T04:41:13;1.92;;;0.30;;
76310;SDS011;65120;59.304;18.294;2022-11-20T04:43:45;0.50;;;0.30;;
76310;SDS011;65120;59.304;18.294;2022-11-20T04:46:12;0.17;;;0.13;;
76310;SDS011;65120;59.304;18.294;2022-11-20T04:48:39;0.28;;;0.10;;
76310;SDS011;65120;59.304;18.294;2022-11-20T04:51:06;0.20;;;0.20;;
76310;SDS011;65120;59.304;18.294;2022-11-20T04:53:33;0.90;;;0.82;;
76310;SDS011;65120;59.304;18.294;2022-11-20T04:56:00;0.85;;;0.32;;
76310;SDS011;65120;59.304;18.294;2022-11-20T04:58:29;0.45;;;0.20;;
76310;SDS011;65120;59.304;18.294;2022-11-20T05:01:00;0.52;;;0.22;;
76310;SDS011;65120;59.304;18.294;2022-11-20T05:03:28;0.20;;;0.15;;
76310;SDS011;65120;59.304;18.294;2022-11-20T05:05:55;1.17;;;0.40;;
76310;SDS011;65120;59.304;18.294;2022-11-20T05:08:22;0.40;;;0.20;;
76310;SDS011;65120;59.304;18.294;2022-11-20T05:10:49;0.50;;;0.30;;
76310;SDS011;65120;59.304;18.294;2022-11-20T05:13:16;0.38;;;0.20;;
76310;SDS011;65120;59.304;18.294;2022-11-20T05:15:44;0.50;;;0.30;;
76310;SDS011;65120;59.304;18.294;2022-11-20T05:18:11;0.30;;;0.20;;
76310;SDS011;65120;59.304;18.294;2022-11-20T05:20:38;0.70;;;0.30;;
76310;SDS011;65120;59.304;18.294;2022-11-20T05:23:05;0.30;;;0.20;;
76310;SDS011;65120;59.304;18.294;2022-11-20T05:25:32;2.75;;;0.25;;
76310;SDS011;65120;59.304;18.294;2022-11-20T05:27:59;0.35;;;0.20;;
76310;SDS011;65120;59.304;18.294;2022-11-20T05:30:25;1.40;;;0.30;;
76310;SDS011;65120;59.304;18.294;2022-11-20T05:32:54;0.32;;;0.20;;
76310;SDS011;65120;59.304;18.294;2022-11-20T05:35:21;0.93;;;0.20;;
76310;SDS011;65120;59.304;18.294;2022-11-20T05:37:48;0.40;;;0.30;;
76310;SDS011;65120;59.304;18.294;2022-11-20T05:40:15;0.20;;;0.20;;
76310;SDS011;65120;59.304;18.294;2022-11-20T05:42:42;0.30;;;0.20;;
76310;SDS011;65120;59.304;18.294;2022-11-20T05:45:09;0.45;;;0.30;;
76310;SDS011;65120;59.304;18.294;2022-11-20T05:47:36;0.30;;;0.20;;
76310;SDS011;65120;59.304;18.294;2022-11-20T05:50:05;1.38;;;0.20;;
76310;SDS011;65120;59.304;18.294;2022-11-20T05:52:32;2.60;;;0.40;;
76310;SDS011;65120;59.304;18.294;2022-11-20T05:54:59;0.50;;;0.20;;
76310;SDS011;65120;59.304;18.294;2022-11-20T05:57:26;0.40;;;0.32;;
76310;SDS011;65120;59.304;18.294;2022-11-20T05:59:53;0.65;;;0.30;;
76310;SDS011;65120;59.304;18.294;2022-11-20T06:02:20;0.30;;;0.20;;
76310;SDS011;65120;59.304;18.294;2022-11-20T06:04:47;1.98;;;0.30;;
76310;SDS011;65120;59.304;18.294;2022-11-20T06:07:15;0.22;;;0.20;;
76310;SDS011;65120;59.304;18.294;2022-11-20T06:09:42;0.55;;;0.20;;
76310;SDS011;65120;59.304;18.294;2022-11-20T06:12:09;0.20;;;0.20;;
76310;SDS011;65120;59.304;18.294;2022-11-20T06:14:36;0.50;;;0.20;;
76310;SDS011;65120;59.304;18.294;2022-11-20T06:17:03;0.43;;;0.30;;
76310;SDS011;65120;59.304;18.294;2022-11-20T06:19:30;0.20;;;0.20;;
76310;SDS011;65120;59.304;18.294;2022-11-20T06:21:57;0.68;;;0.30;;
76310;SDS011;65120;59.304;18.294;2022-11-20T06:24:25;0.73;;;0.20;;
76310;SDS011;65120;59.304;18.294;2022-11-20T06:26:52;0.30;;;0.20;;
76310;SDS011;65120;59.304;18.294;2022-11-20T06:29:19;0.30;;;0.28;;
76310;SDS011;65120;59.304;18.294;2022-11-20T06:31:46;0.30;;;0.22;;
76310;SDS011;65120;59.304;18.294;2022-11-20T06:34:13;0.30;;;0.30;;
76310;SDS011;65120;59.304;18.294;2022-11-20T06:36:40;0.30;;;0.30;;
76310;SDS011;65120;59.304;18.294;2022-11-20T06:39:07;0.30;;;0.30;;
76310;SDS011;65120;59.304;18.294;2022-11-20T06:41:36;0.25;;;0.20;;
76310;SDS011;65120;59.304;18.294;2022-11-20T06:44:03;0.60;;;0.30;;
76310;SDS011;65120;59.304;18.294;2022-11-20T06:46:30;0.55;;;0.20;;
76310;SDS011;65120;59.304;18.294;2022-11-20T06:48:57;0.40;;;0.20;;
76310;SDS011;65120;59.304;18.294;2022-11-20T06:51:24;0.88;;;0.30;;
76310;SDS011;65120;59.304;18.294;2022-11-20T06:53:51;0.50;;;0.30;;
76310;SDS011;65120;59.304;18.294;2022-11-20T06:56:19;0.30;;;0.28;;
76310;SDS011;65120;59.304;18.294;2022-11-20T06:58:47;0.70;;;0.20;;
76310;SDS011;65120;59.304;18.294;2022-11-20T07:01:14;0.25;;;0.20;;
76310;SDS011;65120;59.304;18.294;2022-11-20T07:03:42;0.40;;;0.30;;
76310;SDS011;65120;59.304;18.294;2022-11-20T07:06:09;1.48;;;0.28;;
76310;SDS011;65120;59.304;18.294;2022-11-20T07:08:37;0.43;;;0.20;;
76310;SDS011;65120;59.304;18.294;2022-11-20T07:11:04;1.10;;;0.15;;
76310;SDS011;65120;59.304;18.294;2022-11-20T07:13:33;0.30;;;0.20;;
76310;SDS011;65120;59.304;18.294;2022-11-20T07:16:03;0.28;;;0.10;;
76310;SDS011;65120;59.304;18.294;2022-11-20T07:18:31;0.20;;;0.20;;
76310;SDS011;65120;59.304;18.294;2022-11-20T07:21:00;0.20;;;0.20;;
76310;SDS011;65120;59.304;18.294;2022-11-20T07:23:27;0.20;;;0.10;;
76310;SDS011;65120;59.304;18.294;2022-11-20T07:25:54;0.30;;;0.20;;
76310;SDS011;65120;59.304;18.294;2022-11-20T07:28:21;1.50;;;0.20;;
76310;SDS011;65120;59.304;18.294;2022-11-20T07:30:51;0.20;;;0.10;;
76310;SDS011;65120;59.304;18.294;2022-11-20T07:33:19;0.40;;;0.10;;
76310;SDS011;65120;59.304;18.294;2022-11-20T07:35:46;1.55;;;0.20;;
76310;SDS011;65120;59.304;18.294;2022-11-20T07:38:13;0.70;;;0.50;;
76310;SDS011;65120;59.304;18.294;2022-11-20T07:40:40;0.10;;;0.10;;
76310;SDS011;65120;59.304;18.294;2022-11-20T07:43:07;2.92;;;0.20;;
76310;SDS011;65120;59.304;18.294;2022-11-20T07:45:34;1.35;;;0.45;;
76310;SDS011;65120;59.304;18.294;2022-11-20T07:48:01;0.60;;;0.10;;
76310;SDS011;65120;59.304;18.294;2022-11-20T07:50:30;0.75;;;0.17;;
76310;SDS011;65120;59.304;18.294;2022-11-20T07:53:00;0.10;;;0.05;;
76310;SDS011;65120;59.304;18.294;2022-11-20T07:55:28;0.65;;;0.10;;
76310;SDS011;65120;59.304;18.294;2022-11-20T07:57:56;1.15;;;0.10;;
76310;SDS011;65120;59.304;18.294;2022-11-20T08:00:23;0.65;;;0.10;;
76310;SDS011;65120;59.304;18.294;2022-11-20T08:02:51;0.10;;;0.10;;
76310;SDS011;65120;59.304;18.294;2022-11-20T08:05:19;0.73;;;0.13;;
76310;SDS011;65120;59.304;18.294;2022-11-20T08:07:48;0.40;;;0.10;;
76310;SDS011;65120;59.304;18.294;2022-11-20T08:10:15;1.77;;;0.20;;
76310;SDS011;65120;59.304;18.294;2022-11-20T08:12:43;0.30;;;0.20;;
76310;SDS011;65120;59.304;18.294;2022-11-20T08:15:28;2.80;;;0.10;;
76310;SDS011;65120;59.304;18.294;2022-11-20T08:17:59;0.52;;;0.15;;
76310;SDS011;65120;59.304;18.294;2022-11-20T08:20:27;0.45;;;0.20;;
76310;SDS011;65120;59.304;18.294;2022-11-20T08:22:59;2.13;;;0.20;;
76310;SDS011;65120;59.304;18.294;2022-11-20T08:25:27;0.22;;;0.20;;
76310;SDS011;65120;59.304;18.294;2022-11-20T08:27:56;1.85;;;0.13;;
76310;SDS011;65120;59.304;18.294;2022-11-20T08:30:24;0.30;;;0.17;;
76310;SDS011;65120;59.304;18.294;2022-11-20T08:32:54;0.30;;;0.20;;
76310;SDS011;65120;59.304;18.294;2022-11-20T08:35:27;3.33;;;0.13;;
76310;SDS011;65120;59.304;18.294;2022-11-20T08:37:54;2.45;;;0.20;;
76310;SDS011;65120;59.304;18.294;2022-11-20T08:40:22;0.50;;;0.20;;
76310;SDS011;65120;59.304;18.294;2022-11-20T08:42:49;0.20;;;0.20;;
76310;SDS011;65120;59.304;18.294;2022-11-20T08:45:17;0.38;;;0.20;;
76310;SDS011;65120;59.304;18.294;2022-11-20T08:47:45;0.70;;;0.20;;
76310;SDS011;65120;59.304;18.294;2022-11-20T08:50:13;1.38;;;0.10;;
76310;SDS011;65120;59.304;18.294;2022-11-20T08:52:41;0.73;;;0.20;;
76310;SDS011;65120;59.304;18.294;2022-11-20T08:55:09;0.65;;;0.20;;
76310;SDS011;65120;59.304;18.294;2022-11-20T08:57:38;0.10;;;0.10;;
76310;SDS011;65120;59.304;18.294;2022-11-20T09:00:06;0.63;;;0.10;;
76310;SDS011;65120;59.304;18.294;2022-11-20T09:02:36;0.20;;;0.10;;
76310;SDS011;65120;59.304;18.294;2022-11-20T09:05:03;0.30;;;0.20;;
76310;SDS011;65120;59.304;18.294;2022-11-20T09:07:31;0.10;;;0.10;;
76310;SDS011;65120;59.304;18.294;2022-11-20T09:09:58;2.40;;;0.10;;
76310;SDS011;65120;59.304;18.294;2022-11-20T09:12:25;0.55;;;0.03;;
76310;SDS011;65120;59.304;18.294;2022-11-20T09:14:54;0.10;;;0.10;;
76310;SDS011;65120;59.304;18.294;2022-11-20T09:17:20;0.10;;;0.10;;
76310;SDS011;65120;59.304;18.294;2022-11-20T09:19:47;0.10;;;0.08;;
76310;SDS011;65120;59.304;18.294;2022-11-20T09:22:14;0.13;;;0.10;;
76310;SDS011;65120;59.304;18.294;2022-11-20T09:24:41;0.10;;;0.05;;
76310;SDS011;65120;59.304;18.294;2022-11-20T09:27:08;2.85;;;0.10;;
76310;SDS011;65120;59.304;18.294;2022-11-20T09:29:35;0.20;;;0.10;;
76310;SDS011;65120;59.304;18.294;2022-11-20T09:32:04;0.00;;;0.00;;
76310;SDS011;65120;59.304;18.294;2022-11-20T09:34:31;0.10;;;0.10;;
76310;SDS011;65120;59.304;18.294;2022-11-20T09:36:58;0.00;;;0.00;;
76310;SDS011;65120;59.304;18.294;2022-11-20T09:39:25;0.20;;;0.10;;
76310;SDS011;65120;59.304;18.294;2022-11-20T09:42:02;0.00;;;0.00;;
76310;SDS011;65120;59.304;18.294;2022-11-20T09:44:47;0.00;;;0.00;;
76310;SDS011;65120;59.304;18.294;2022-11-20T09:47:26;0.73;;;0.00;;
76310;SDS011;65120;59.304;18.294;2022-11-20T09:50:12;0.17;;;0.10;;
76310;SDS011;65120;59.304;18.294;2022-11-20T09:52:51;0.52;;;0.20;;
76310;SDS011;65120;59.304;18.294;2022-11-20T09:55:31;0.30;;;0.20;;
76310;SDS011;65120;59.304;18.294;2022-11-20T09:57:58;0.00;;;0.00;;
76310;SDS011;65120;59.304;18.294;2022-11-20T10:00:26;0.00;;;0.00;;
76310;SDS011;65120;59.304;18.294;2022-11-20T10:02:58;0.00;;;0.00;;
76310;SDS011;65120;59.304;18.294;2022-11-20T10:05:31;0.55;;;0.05;;
76310;SDS011;65120;59.304;18.294;2022-11-20T10:10:40;0.03;;;0.00;;
76310;SDS011;65120;59.304;18.294;2022-11-20T10:13:21;0.10;;;0.00;;
76310;SDS011;65120;59.304;18.294;2022-11-20T10:16:06;1.35;;;0.10;;
76310;SDS011;65120;59.304;18.294;2022-11-20T10:18:51;0.30;;;0.20;;
76310;SDS011;65120;59.304;18.294;2022-11-20T10:21:30;0.82;;;0.20;;
76310;SDS011;65120;59.304;18.294;2022-11-20T10:27:03;0.20;;;0.10;;
76310;SDS011;65120;59.304;18.294;2022-11-20T10:29:41;0.20;;;0.10;;
76310;SDS011;65120;59.304;18.294;2022-11-20T10:32:14;0.10;;;0.10;;
76310;SDS011;65120;59.304;18.294;2022-11-20T10:34:46;0.40;;;0.10;;
76310;SDS011;65120;59.304;18.294;2022-11-20T10:37:19;0.45;;;0.38;;
76310;SDS011;65120;59.304;18.294;2022-11-20T10:39:50;0.10;;;0.05;;
76310;SDS011;65120;59.304;18.294;2022-11-20T10:42:24;0.40;;;0.10;;
76310;SDS011;65120;59.304;18.294;2022-11-20T10:44:58;0.73;;;0.10;;
76310;SDS011;65120;59.304;18.294;2022-11-20T10:47:36;0.55;;;0.00;;
76310;SDS011;65120;59.304;18.294;2022-11-20T10:50:05;0.73;;;0.00;;
76310;SDS011;65120;59.304;18.294;2022-11-20T10:52:39;0.37;;;0.10;;
76310;SDS011;65120;59.304;18.294;2022-11-20T10:55:17;0.10;;;0.00;;
76310;SDS011;65120;59.304;18.294;2022-11-20T10:57:54;0.03;;;0.03;;
76310;SDS011;65120;59.304;18.294;2022-11-20T11:00:32;0.13;;;0.10;;
76310;SDS011;65120;59.304;18.294;2022-11-20T11:02:59;0.10;;;0.08;;
76310;SDS011;65120;59.304;18.294;2022-11-20T11:05:33;2.65;;;0.10;;
76310;SDS011;65120;59.304;18.294;2022-11-20T11:08:04;0.10;;;0.03;;
76310;SDS011;65120;59.304;18.294;2022-11-20T11:10:39;1.85;;;0.20;;
76310;SDS011;65120;59.304;18.294;2022-11-20T11:13:18;1.45;;;0.00;;
76310;SDS011;65120;59.304;18.294;2022-11-20T11:15:46;0.10;;;0.10;;
76310;SDS011;65120;59.304;18.294;2022-11-20T11:18:22;0.50;;;0.10;;
76310;SDS011;65120;59.304;18.294;2022-11-20T11:20:52;0.10;;;0.10;;
76310;SDS011;65120;59.304;18.294;2022-11-20T11:23:28;0.10;;;0.10;;
76310;SDS011;65120;59.304;18.294;2022-11-20T11:26:02;0.25;;;0.10;;
76310;SDS011;65120;59.304;18.294;2022-11-20T11:28:31;0.82;;;0.15;;
76310;SDS011;65120;59.304;18.294;2022-11-20T11:30:59;0.47;;;0.20;;
76310;SDS011;65120;59.304;18.294;2022-11-20T11:33:26;1.30;;;0.20;;
76310;SDS011;65120;59.304;18.294;2022-11-20T11:35:56;0.22;;;0.10;;
76310;SDS011;65120;59.304;18.294;2022-11-20T11:38:27;0.10;;;0.10;;
76310;SDS011;65120;59.304;18.294;2022-11-20T11:40:57;0.38;;;0.10;;
76310;SDS011;65120;59.304;18.294;2022-11-20T11:43:24;0.10;;;0.10;;
76310;SDS011;65120;59.304;18.294;2022-11-20T11:48:58;0.10;;;0.10;;
76310;SDS011;65120;59.304;18.294;2022-11-20T11:51:29;0.00;;;0.00;;
76310;SDS011;65120;59.304;18.294;2022-11-20T11:54:03;0.47;;;0.10;;
76310;SDS011;65120;59.304;18.294;2022-11-20T11:56:39;0.10;;;0.10;;
76310;SDS011;65120;59.304;18.294;2022-11-20T11:59:06;0.10;;;0.10;;
76310;SDS011;65120;59.304;18.294;2022-11-20T12:01:41;0.03;;;0.03;;
76310;SDS011;65120;59.304;18.294;2022-11-20T12:04:13;1.85;;;0.10;;
76310;SDS011;65120;59.304;18.294;2022-11-20T12:06:50;3.42;;;0.20;;
76310;SDS011;65120;59.304;18.294;2022-11-20T12:09:34;0.20;;;0.20;;
76310;SDS011;65120;59.304;18.294;2022-11-20T12:12:08;0.65;;;0.20;;
76310;SDS011;65120;59.304;18.294;2022-11-20T12:14:40;0.45;;;0.15;;
76310;SDS011;65120;59.304;18.294;2022-11-20T12:17:12;0.50;;;0.30;;
76310;SDS011;65120;59.304;18.294;2022-11-20T12:19:40;2.88;;;0.40;;
76310;SDS011;65120;59.304;18.294;2022-11-20T12:22:10;2.70;;;0.22;;
76310;SDS011;65120;59.304;18.294;2022-11-20T12:24:51;0.50;;;0.40;;
76310;SDS011;65120;59.304;18.294;2022-11-20T12:27:30;1.27;;;0.50;;
76310;SDS011;65120;59.304;18.294;2022-11-20T12:30:19;1.42;;;0.43;;
76310;SDS011;65120;59.304;18.294;2022-11-20T12:35:52;2.58;;;0.40;;
76310;SDS011;65120;59.304;18.294;2022-11-20T12:38:50;2.47;;;0.47;;
76310;SDS011;65120;59.304;18.294;2022-11-20T12:45:04;1.77;;;0.63;;
76310;SDS011;65120;59.304;18.294;2022-11-20T12:47:53;2.53;;;0.68;;
76310;SDS011;65120;59.304;18.294;2022-11-20T12:50:33;2.35;;;0.70;;
76310;SDS011;65120;59.304;18.294;2022-11-20T12:53:10;1.10;;;0.50;;
76310;SDS011;65120;59.304;18.294;2022-11-20T12:55:52;1.58;;;0.90;;
76310;SDS011;65120;59.304;18.294;2022-11-20T12:58:27;2.13;;;0.50;;
76310;SDS011;65120;59.304;18.294;2022-11-20T13:01:03;1.27;;;0.60;;
76310;SDS011;65120;59.304;18.294;2022-11-20T13:04:03;1.13;;;0.60;;
76310;SDS011;65120;59.304;18.294;2022-11-20T13:06:35;1.27;;;0.50;;
76310;SDS011;65120;59.304;18.294;2022-11-20T13:09:04;2.40;;;1.00;;
76310;SDS011;65120;59.304;18.294;2022-11-20T13:11:39;1.88;;;0.50;;
76310;SDS011;65120;59.304;18.294;2022-11-20T13:14:13;1.02;;;0.85;;
76310;SDS011;65120;59.304;18.294;2022-11-20T13:16:52;3.10;;;0.40;;
76310;SDS011;65120;59.304;18.294;2022-11-20T13:19:25;0.80;;;0.40;;
76310;SDS011;65120;59.304;18.294;2022-11-20T13:21:53;1.85;;;0.40;;
76310;SDS011;65120;59.304;18.294;2022-11-20T13:24:21;0.98;;;0.50;;
76310;SDS011;65120;59.304;18.294;2022-11-20T13:27:04;1.05;;;0.20;;
76310;SDS011;65120;59.304;18.294;2022-11-20T13:29:58;1.30;;;0.20;;
76310;SDS011;65120;59.304;18.294;2022-11-20T13:32:27;0.25;;;0.25;;
76310;SDS011;65120;59.304;18.294;2022-11-20T13:34:58;1.25;;;0.35;;
76310;SDS011;65120;59.304;18.294;2022-11-20T13:37:27;0.45;;;0.40;;
76310;SDS011;65120;59.304;18.294;2022-11-20T13:40:11;1.55;;;0.40;;
76310;SDS011;65120;59.304;18.294;2022-11-20T13:42:43;1.23;;;0.30;;
76310;SDS011;65120;59.304;18.294;2022-11-20T13:45:25;2.80;;;0.50;;
76310;SDS011;65120;59.304;18.294;2022-11-20T13:47:53;0.60;;;0.20;;
76310;SDS011;65120;59.304;18.294;2022-11-20T13:50:26;0.32;;;0.28;;
76310;SDS011;65120;59.304;18.294;2022-11-20T13:53:15;1.20;;;0.40;;
76310;SDS011;65120;59.304;18.294;2022-11-20T13:55:58;5.20;;;0.40;;
76310;SDS011;65120;59.304;18.294;2022-11-20T13:58:40;0.35;;;0.20;;
76310;SDS011;65120;59.304;18.294;2022-11-20T14:01:16;0.77;;;0.30;;
76310;SDS011;65120;59.304;18.294;2022-11-20T14:03:46;1.02;;;0.10;;
76310;SDS011;65120;59.304;18.294;2022-11-20T14:06:16;0.30;;;0.10;;
76310;SDS011;65120;59.304;18.294;2022-11-20T14:08:52;0.30;;;0.20;;
76310;SDS011;65120;59.304;18.294;2022-11-20T14:11:20;0.50;;;0.20;;
76310;SDS011;65120;59.304;18.294;2022-11-20T14:13:57;0.30;;;0.20;;
76310;SDS011;65120;59.304;18.294;2022-11-20T14:16:26;0.10;;;0.10;;
76310;SDS011;65120;59.304;18.294;2022-11-20T14:18:55;0.13;;;0.10;;
76310;SDS011;65120;59.304;18.294;2022-11-20T14:21:26;0.38;;;0.10;;
76310;SDS011;65120;59.304;18.294;2022-11-20T14:24:02;0.30;;;0.20;;
76310;SDS011;65120;59.304;18.294;2022-11-20T14:26:30;0.50;;;0.20;;
76310;SDS011;65120;59.304;18.294;2022-11-20T14:28:59;0.22;;;0.20;;
76310;SDS011;65120;59.304;18.294;2022-11-20T14:31:27;0.47;;;0.20;;
76310;SDS011;65120;59.304;18.294;2022-11-20T14:33:54;0.93;;;0.20;;
76310;SDS011;65120;59.304;18.294;2022-11-20T14:36:24;0.63;;;0.20;;
76310;SDS011;65120;59.304;18.294;2022-11-20T14:38:52;0.20;;;0.20;;
76310;SDS011;65120;59.304;18.294;2022-11-20T14:41:20;0.38;;;0.17;;
76310;SDS011;65120;59.304;18.294;2022-11-20T14:43:49;0.50;;;0.30;;
76310;SDS011;65120;59.304;18.294;2022-11-20T14:46:22;0.30;;;0.20;;
76310;SDS011;65120;59.304;18.294;2022-11-20T14:48:50;0.93;;;0.30;;
76310;SDS011;65120;59.304;18.294;2022-11-20T14:51:30;1.58;;;0.20;;
76310;SDS011;65120;59.304;18.294;2022-11-20T14:54:07;0.65;;;0.30;;
76310;SDS011;65120;59.304;18.294;2022-11-20T14:56:35;0.75;;;0.40;;
76310;SDS011;65120;59.304;18.294;2022-11-20T14:59:02;0.25;;;0.20;;
76310;SDS011;65120;59.304;18.294;2022-11-20T15:01:32;1.40;;;0.30;;
76310;SDS011;65120;59.304;18.294;2022-11-20T15:04:00;1.08;;;0.30;;
76310;SDS011;65120;59.304;18.294;2022-11-20T15:06:31;0.35;;;0.20;;
76310;SDS011;65120;59.304;18.294;2022-11-20T15:08:58;0.38;;;0.30;;